createdAt,value
2023-05-12T00:00:32.999Z,6.67
2023-05-12T00:02:59.709Z,5.53
2023-05-12T00:05:26.174Z,6.53
2023-05-12T00:07:52.580Z,6.03
2023-05-12T00:10:20.567Z,7.05
2023-05-12T00:12:47.522Z,6.63
2023-05-12T00:15:14.324Z,6.20
2023-05-12T00:17:40.826Z,5.50
2023-05-12T00:20:08.071Z,5.90
2023-05-12T00:22:34.574Z,6.22
2023-05-12T00:25:01.004Z,6.00
2023-05-12T00:27:28.813Z,6.03
2023-05-12T00:29:55.388Z,6.32
2023-05-12T00:32:21.901Z,6.28
2023-05-12T00:34:49.388Z,6.15
2023-05-12T00:37:15.932Z,5.90
2023-05-12T00:39:42.422Z,5.22
2023-05-12T00:42:09.122Z,5.75
2023-05-12T00:44:36.959Z,5.13
2023-05-12T00:47:03.645Z,6.13
2023-05-12T00:49:30.802Z,5.43
2023-05-12T00:51:58.752Z,5.35
2023-05-12T00:54:25.266Z,4.32
2023-05-12T00:56:51.916Z,4.75
2023-05-12T00:59:18.404Z,5.03
2023-05-12T01:01:47.283Z,5.05
2023-05-12T01:04:13.800Z,5.13
2023-05-12T01:06:45.390Z,4.72
2023-05-12T01:09:12.486Z,4.80
2023-05-12T01:11:38.909Z,4.90
2023-05-12T01:14:05.438Z,5.28
2023-05-12T01:16:36.264Z,5.15
2023-05-12T01:19:06.870Z,5.50
2023-05-12T01:21:33.430Z,5.93
2023-05-12T01:24:06.103Z,5.32
2023-05-12T01:26:33.927Z,6.22
2023-05-12T01:29:01.595Z,6.40
2023-05-12T01:31:28.957Z,6.03
2023-05-12T01:33:55.450Z,5.50
2023-05-12T01:36:22.045Z,6.32
2023-05-12T01:38:49.675Z,5.88
2023-05-12T01:41:16.160Z,7.03
2023-05-12T01:43:43.954Z,7.00
2023-05-12T01:46:10.395Z,7.32
2023-05-12T01:48:37.012Z,7.57
2023-05-12T01:51:07.154Z,6.85
2023-05-12T01:53:33.635Z,7.15
2023-05-12T01:56:00.140Z,7.55
2023-05-12T01:58:26.569Z,8.35
2023-05-12T02:00:54.363Z,8.38
2023-05-12T02:03:20.862Z,8.55
2023-05-12T02:05:47.333Z,8.57
2023-05-12T02:08:13.803Z,9.57
2023-05-12T02:10:40.309Z,7.82
2023-05-12T02:13:06.732Z,8.65
2023-05-12T02:15:33.180Z,9.20
2023-05-12T02:18:01.021Z,8.35
2023-05-12T02:20:27.630Z,12.57
2023-05-12T02:22:54.169Z,10.52
2023-05-12T02:25:20.680Z,14.35
2023-05-12T02:27:47.371Z,13.40
2023-05-12T02:30:14.170Z,12.50
2023-05-12T02:32:40.640Z,12.25
2023-05-12T02:35:09.585Z,11.75
2023-05-12T02:37:36.005Z,12.18
2023-05-12T02:40:02.429Z,12.43
2023-05-12T02:42:28.904Z,13.18
2023-05-12T02:44:55.391Z,14.05
2023-05-12T02:47:21.854Z,12.50
2023-05-12T02:49:48.329Z,17.05
2023-05-12T02:52:16.201Z,15.73
2023-05-12T02:54:42.653Z,17.65
2023-05-12T02:57:09.137Z,16.92
2023-05-12T02:59:35.529Z,16.33
2023-05-12T03:02:02.085Z,16.48
2023-05-12T03:04:28.584Z,16.63
2023-05-12T03:06:55.092Z,18.88
2023-05-12T03:09:22.882Z,14.48
2023-05-12T03:11:49.349Z,17.00
2023-05-12T03:14:15.764Z,16.75
2023-05-12T03:16:42.231Z,17.30
2023-05-12T03:19:08.853Z,13.93
2023-05-12T03:21:35.340Z,13.95
2023-05-12T03:24:01.834Z,13.32
2023-05-12T03:26:29.677Z,15.90
2023-05-12T03:28:56.109Z,16.95
2023-05-12T03:31:22.812Z,20.98
2023-05-12T03:33:49.340Z,19.00
2023-05-12T03:36:15.776Z,20.42
2023-05-12T03:38:42.216Z,20.65
2023-05-12T03:41:08.747Z,19.75
2023-05-12T03:43:36.559Z,19.65
2023-05-12T03:46:03.249Z,20.88
2023-05-12T03:48:29.776Z,20.40
2023-05-12T03:50:56.334Z,20.30
2023-05-12T03:53:22.804Z,18.75
2023-05-12T03:55:49.253Z,19.80
2023-05-12T03:58:15.682Z,19.63
2023-05-12T04:00:44.253Z,20.33
2023-05-12T04:03:10.819Z,21.08
2023-05-12T04:05:37.267Z,19.60
2023-05-12T04:08:04.090Z,17.67
2023-05-12T04:10:30.547Z,15.43
2023-05-12T04:12:56.945Z,15.70
2023-05-12T04:15:23.680Z,16.03
2023-05-12T04:17:51.509Z,14.60
2023-05-12T04:20:18.149Z,14.57
2023-05-12T04:22:44.776Z,13.77
2023-05-12T04:25:11.188Z,13.88
2023-05-12T04:27:37.654Z,13.73
2023-05-12T04:30:05.014Z,13.40
2023-05-12T04:32:31.566Z,13.05
2023-05-12T04:34:59.592Z,14.32
2023-05-12T04:37:26.081Z,13.32
2023-05-12T04:39:52.597Z,12.27
2023-05-12T04:42:19.084Z,12.95
2023-05-12T04:44:45.572Z,14.13
2023-05-12T04:47:12.170Z,13.95
2023-05-12T04:49:38.868Z,13.18
2023-05-12T04:52:07.147Z,14.38
2023-05-12T04:54:33.600Z,15.98
2023-05-12T04:57:00.045Z,14.10
2023-05-12T04:59:26.566Z,14.68
2023-05-12T05:01:53.177Z,15.13
2023-05-12T05:04:19.693Z,15.03
2023-05-12T05:06:46.134Z,13.85
2023-05-12T05:09:13.926Z,14.57
2023-05-12T05:11:40.410Z,13.90
2023-05-12T05:14:06.846Z,14.95
2023-05-12T05:16:33.322Z,14.13
2023-05-12T05:18:59.867Z,15.30
2023-05-12T05:21:26.426Z,15.55
2023-05-12T05:23:52.900Z,14.50
2023-05-12T05:26:20.702Z,12.63
2023-05-12T05:28:47.174Z,11.85
2023-05-12T05:31:15.901Z,13.02
2023-05-12T05:33:42.392Z,11.65
2023-05-12T05:36:09.123Z,13.18
2023-05-12T05:38:35.588Z,12.20
2023-05-12T05:41:02.208Z,11.02
2023-05-12T05:43:30.002Z,11.65
2023-05-12T05:45:56.542Z,11.60
2023-05-12T05:48:23.108Z,10.68
2023-05-12T05:50:50.607Z,9.93
2023-05-12T05:55:43.526Z,10.30
2023-05-12T05:58:10.160Z,10.98
2023-05-12T06:00:38.133Z,10.00
2023-05-12T06:03:04.666Z,10.73
2023-05-12T06:05:31.152Z,10.48
2023-05-12T06:07:57.583Z,10.40
2023-05-12T06:10:24.157Z,10.02
2023-05-12T06:12:50.607Z,9.38
2023-05-12T06:15:17.143Z,8.95
2023-05-12T06:17:45.033Z,9.07
2023-05-12T06:20:12.105Z,8.13
2023-05-12T06:22:38.664Z,8.65
2023-05-12T06:25:06.138Z,8.00
2023-05-12T06:27:32.683Z,7.13
2023-05-12T06:29:59.120Z,6.47
2023-05-12T06:32:25.655Z,5.97
2023-05-12T06:34:53.545Z,6.00
2023-05-12T06:37:20.012Z,5.32
2023-05-12T06:39:46.434Z,5.57
2023-05-12T06:42:12.937Z,5.65
2023-05-12T06:44:41.733Z,5.43
2023-05-12T06:47:08.739Z,5.25
2023-05-12T06:49:35.219Z,4.60
2023-05-12T06:52:03.180Z,4.68
2023-05-12T06:54:29.676Z,4.82
2023-05-12T06:56:56.106Z,4.60
2023-05-12T06:59:22.546Z,4.28
2023-05-12T07:01:49.028Z,5.05
2023-05-12T07:04:15.577Z,4.88
2023-05-12T07:06:42.071Z,4.13
2023-05-12T07:09:09.866Z,5.95
2023-05-12T07:11:36.340Z,5.22
2023-05-12T07:14:02.763Z,5.10
2023-05-12T07:16:29.291Z,5.57
2023-05-12T07:18:55.836Z,5.97
2023-05-12T07:21:22.304Z,4.80
2023-05-12T07:23:48.680Z,4.32
2023-05-12T07:26:16.430Z,3.97
2023-05-12T07:28:42.872Z,3.95
2023-05-12T07:31:09.503Z,3.50
2023-05-12T07:33:36.476Z,3.73
2023-05-12T07:36:03.265Z,3.40
2023-05-12T07:38:29.719Z,3.87
2023-05-12T07:40:56.157Z,4.03
2023-05-12T07:43:23.927Z,3.45
2023-05-12T07:45:50.367Z,3.58
2023-05-12T07:48:16.842Z,3.50
2023-05-12T07:50:43.329Z,3.63
2023-05-12T07:53:09.729Z,3.35
2023-05-12T07:55:36.169Z,3.05
2023-05-12T07:58:02.753Z,3.30
2023-05-12T08:00:30.555Z,3.70
2023-05-12T08:02:57.206Z,3.35
2023-05-12T08:05:23.806Z,2.95
2023-05-12T08:07:51.383Z,3.65
2023-05-12T08:10:17.831Z,3.97
2023-05-12T08:12:44.247Z,3.78
2023-05-12T08:15:10.930Z,3.15
2023-05-12T08:17:38.717Z,3.07
2023-05-12T08:20:06.234Z,2.58
2023-05-12T08:24:58.952Z,2.50
2023-05-12T08:27:25.395Z,2.85
2023-05-12T08:29:51.802Z,2.97
2023-05-12T08:32:18.331Z,3.15
2023-05-12T08:34:46.102Z,2.45
2023-05-12T08:37:12.641Z,1.75
2023-05-12T08:39:39.133Z,1.80
2023-05-12T08:42:15.123Z,1.77
2023-05-12T08:44:41.661Z,3.35
2023-05-12T08:47:08.685Z,2.87
2023-05-12T08:49:36.197Z,2.72
2023-05-12T08:54:33.423Z,2.67
2023-05-12T08:59:31.366Z,2.25
2023-05-12T09:04:25.247Z,2.10
2023-05-12T09:06:54.979Z,2.65
2023-05-12T09:09:27.087Z,2.47
2023-05-12T09:11:56.790Z,1.80
2023-05-12T09:14:25.645Z,2.08
2023-05-12T09:16:59.748Z,1.90
2023-05-12T09:19:26.230Z,1.75
2023-05-12T09:21:52.856Z,1.98
2023-05-12T09:24:19.363Z,2.20
2023-05-12T09:26:48.827Z,2.40
2023-05-12T09:29:27.685Z,2.15
2023-05-12T09:31:58.604Z,2.15
2023-05-12T09:34:27.784Z,2.60
2023-05-12T09:36:57.921Z,2.83
2023-05-12T09:39:25.010Z,2.63
2023-05-12T09:41:53.028Z,2.30
2023-05-12T09:44:19.966Z,2.15
2023-05-12T09:46:46.518Z,2.05
2023-05-12T09:49:13.364Z,1.98
2023-05-12T09:51:40.536Z,1.90
2023-05-12T09:54:07.960Z,1.63
2023-05-12T09:56:37.447Z,1.80
2023-05-12T09:59:05.609Z,1.48
2023-05-12T10:01:32.302Z,2.30
2023-05-12T10:03:59.635Z,1.58
2023-05-12T10:06:27.477Z,1.98
2023-05-12T10:09:01.622Z,1.60
2023-05-12T10:11:29.259Z,2.00
2023-05-12T10:13:56.193Z,2.30
2023-05-12T10:16:24.624Z,1.85
2023-05-12T10:18:51.849Z,1.67
2023-05-12T10:21:18.859Z,2.30
2023-05-12T10:23:46.572Z,1.58
2023-05-12T10:26:14.101Z,1.83
2023-05-12T10:28:40.833Z,2.15
2023-05-12T10:31:07.843Z,2.05
2023-05-12T10:33:35.878Z,1.63
2023-05-12T10:36:02.561Z,2.22
2023-05-12T10:38:36.135Z,1.77
2023-05-12T10:41:06.084Z,1.70
2023-05-12T10:43:38.862Z,1.85
2023-05-12T10:46:09.851Z,1.60
2023-05-12T10:48:50.245Z,2.08
2023-05-12T10:51:19.960Z,1.85
2023-05-12T10:53:51.141Z,1.67
2023-05-12T10:56:25.621Z,2.90
2023-05-12T10:59:11.938Z,2.63
2023-05-12T11:01:39.743Z,2.50
2023-05-12T11:04:13.070Z,2.50
2023-05-12T11:06:40.973Z,2.45
2023-05-12T11:09:09.072Z,2.92
2023-05-12T11:11:36.296Z,2.53
2023-05-12T11:14:02.985Z,2.83
2023-05-12T11:16:29.530Z,2.45
2023-05-12T11:19:03.258Z,2.78
2023-05-12T11:21:32.151Z,3.03
2023-05-12T11:23:58.698Z,2.92
2023-05-12T11:26:25.123Z,3.30
2023-05-12T11:28:51.574Z,79.18
2023-05-12T11:31:18.932Z,3.95
2023-05-12T11:33:45.465Z,3.92
2023-05-12T11:36:11.957Z,8.95
2023-05-12T11:38:39.859Z,43.60
2023-05-12T11:41:06.335Z,16.20
2023-05-12T11:46:00.209Z,7.10
2023-05-12T11:48:33.384Z,6.97
2023-05-12T11:50:59.935Z,15.55
2023-05-12T11:53:27.710Z,4.90
2023-05-12T11:55:56.517Z,3.55
2023-05-12T11:58:25.763Z,4.32
2023-05-12T12:00:52.346Z,16.17
2023-05-12T12:03:19.479Z,4.17
2023-05-12T12:05:57.910Z,6.10
2023-05-12T12:08:24.398Z,4.15
2023-05-12T12:10:50.938Z,4.47
2023-05-12T12:13:21.824Z,4.20
2023-05-12T12:15:48.476Z,3.28
2023-05-12T12:18:15.270Z,2.67
2023-05-12T12:20:41.778Z,2.78
2023-05-12T12:23:08.264Z,3.25
2023-05-12T12:25:34.716Z,3.65
2023-05-12T12:28:01.252Z,4.50
2023-05-12T12:30:31.781Z,3.45
2023-05-12T12:32:58.281Z,3.42
2023-05-12T12:35:24.821Z,2.83
2023-05-12T12:37:51.289Z,2.70
2023-05-12T12:40:18.771Z,2.47
2023-05-12T12:45:12.301Z,1.45
2023-05-12T12:47:40.196Z,1.70
2023-05-12T12:50:07.847Z,1.85
2023-05-12T12:52:34.290Z,1.52
2023-05-12T12:55:00.800Z,1.60
2023-05-12T12:57:27.355Z,1.60
2023-05-12T12:59:54.248Z,1.30
2023-05-12T13:02:20.728Z,1.73
2023-05-12T13:04:48.561Z,1.58
2023-05-12T13:07:15.016Z,1.10
2023-05-12T13:09:41.454Z,1.17
2023-05-12T13:12:08.347Z,1.23
2023-05-12T13:14:34.786Z,1.60
2023-05-12T13:17:01.510Z,1.45
2023-05-12T13:19:27.995Z,1.35
2023-05-12T13:21:55.778Z,1.60
2023-05-12T13:24:22.255Z,1.40
2023-05-12T13:26:48.701Z,1.52
2023-05-12T13:29:15.152Z,2.10
2023-05-12T13:31:41.580Z,1.70
2023-05-12T13:34:08.036Z,1.85
2023-05-12T13:36:34.495Z,1.60
2023-05-12T13:39:02.438Z,2.13
2023-05-12T13:41:28.956Z,2.20
2023-05-12T13:43:55.413Z,2.10
2023-05-12T13:46:21.886Z,1.83
2023-05-12T13:48:48.369Z,1.77
2023-05-12T13:51:14.992Z,1.95
2023-05-12T13:53:41.464Z,2.07
2023-05-12T13:56:09.435Z,2.47
2023-05-12T13:58:35.878Z,2.60
2023-05-12T14:01:02.424Z,1.85
2023-05-12T14:03:28.868Z,2.10
2023-05-12T14:05:55.289Z,2.05
2023-05-12T14:08:21.738Z,2.05
2023-05-12T14:10:48.182Z,2.75
2023-05-12T14:13:15.944Z,2.53
2023-05-12T14:15:49.281Z,2.85
2023-05-12T14:18:17.011Z,3.05
2023-05-12T14:20:43.911Z,2.80
2023-05-12T14:23:10.827Z,2.35
2023-05-12T14:25:37.519Z,2.47
2023-05-12T14:28:04.305Z,2.87
2023-05-12T14:30:32.417Z,2.65
2023-05-12T14:32:59.011Z,3.53
2023-05-12T14:35:25.630Z,3.03
2023-05-12T14:37:52.069Z,2.77
2023-05-12T14:40:18.515Z,3.22
2023-05-12T14:42:44.952Z,3.28
2023-05-12T14:45:11.652Z,3.30
2023-05-12T14:47:39.490Z,3.38
2023-05-12T14:50:07.077Z,3.33
2023-05-12T14:52:33.528Z,3.20
2023-05-12T14:54:59.920Z,3.53
2023-05-12T14:57:26.339Z,3.00
2023-05-12T14:59:52.774Z,3.42
2023-05-12T15:02:19.209Z,3.30
2023-05-12T15:04:48.501Z,4.15
2023-05-12T15:07:14.905Z,4.15
2023-05-12T15:09:41.355Z,4.13
2023-05-12T15:12:08.435Z,3.70
2023-05-12T15:14:34.835Z,4.40
2023-05-12T15:17:01.503Z,4.50
2023-05-12T15:19:27.944Z,5.05
2023-05-12T15:21:55.749Z,6.28
2023-05-12T15:24:22.263Z,4.88
2023-05-12T15:26:48.761Z,5.40
2023-05-12T15:29:15.257Z,4.90
2023-05-12T15:31:41.819Z,5.25
2023-05-12T15:34:08.283Z,6.37
2023-05-12T15:36:34.786Z,6.82
2023-05-12T15:39:02.637Z,6.72
2023-05-12T15:41:29.163Z,7.43
2023-05-12T15:43:55.621Z,8.10
2023-05-12T15:46:22.062Z,7.75
2023-05-12T15:48:48.610Z,8.52
2023-05-12T15:51:15.033Z,8.65
2023-05-12T15:53:41.639Z,8.63
2023-05-12T15:56:09.443Z,6.97
2023-05-12T15:58:35.883Z,7.85
2023-05-12T16:01:02.352Z,5.80
2023-05-12T16:03:28.912Z,5.28
2023-05-12T16:05:55.450Z,5.30
2023-05-12T16:08:21.873Z,5.53
2023-05-12T16:10:48.277Z,4.60
2023-05-12T16:13:16.069Z,5.05
2023-05-12T16:15:42.484Z,4.70
2023-05-12T16:18:11.104Z,5.25
2023-05-12T16:20:38.076Z,5.20
2023-05-12T16:23:04.608Z,4.47
2023-05-12T16:25:31.087Z,4.65
2023-05-12T16:27:57.502Z,5.10
2023-05-12T16:30:25.639Z,5.10
2023-05-12T16:32:52.107Z,4.75
2023-05-12T16:35:18.686Z,5.25
2023-05-12T16:37:45.374Z,5.32
2023-05-12T16:40:12.191Z,4.70
2023-05-12T16:42:38.647Z,4.50
2023-05-12T16:45:05.959Z,4.47
2023-05-12T16:47:33.725Z,5.43
2023-05-12T16:50:00.305Z,4.75
2023-05-12T16:52:27.012Z,3.80
2023-05-12T16:54:55.340Z,4.83
2023-05-12T16:57:21.765Z,4.80
2023-05-12T16:59:48.374Z,4.72
2023-05-12T17:02:14.915Z,4.20
2023-05-12T17:04:42.917Z,4.82
2023-05-12T17:07:09.344Z,4.15
2023-05-12T17:09:35.790Z,4.57
2023-05-12T17:12:02.272Z,4.18
2023-05-12T17:14:28.720Z,4.05
2023-05-12T17:16:55.221Z,4.22
2023-05-12T17:19:21.748Z,3.95
2023-05-12T17:21:49.624Z,4.32
2023-05-12T17:24:16.034Z,3.50
2023-05-12T17:26:42.517Z,4.43
2023-05-12T17:29:08.975Z,3.92
2023-05-12T17:31:36.846Z,4.15
2023-05-12T17:34:03.352Z,4.43
2023-05-12T17:36:30.060Z,4.55
2023-05-12T17:38:57.854Z,4.30
2023-05-12T17:41:25.453Z,4.07
2023-05-12T17:43:52.866Z,3.95
2023-05-12T17:46:19.390Z,4.07
2023-05-12T17:48:45.835Z,3.95
2023-05-12T17:51:12.324Z,3.75
2023-05-12T17:53:38.867Z,4.30
2023-05-12T17:56:07.319Z,3.85
2023-05-12T17:58:33.797Z,4.00
2023-05-12T18:01:00.303Z,3.90
2023-05-12T18:03:26.893Z,3.97
2023-05-12T18:05:53.750Z,3.70
2023-05-12T18:08:20.662Z,4.85
2023-05-12T18:10:47.516Z,4.55
2023-05-12T18:13:15.273Z,4.53
2023-05-12T18:15:41.690Z,4.13
2023-05-12T18:18:08.192Z,5.13
2023-05-12T18:20:34.649Z,4.82
2023-05-12T18:23:01.091Z,4.60
2023-05-12T18:25:27.550Z,4.15
2023-05-12T18:27:54.031Z,4.75
2023-05-12T18:30:22.046Z,4.35
2023-05-12T18:32:48.554Z,5.03
2023-05-12T18:35:15.007Z,4.53
2023-05-12T18:37:41.422Z,5.05
2023-05-12T18:40:08.918Z,4.63
2023-05-12T18:42:35.315Z,5.18
2023-05-12T18:45:01.798Z,4.60
2023-05-12T18:47:29.544Z,4.45
2023-05-12T18:49:56.000Z,4.75
2023-05-12T18:52:22.445Z,5.68
2023-05-12T18:54:49.778Z,5.15
2023-05-12T18:59:42.906Z,4.90
2023-05-12T19:02:09.479Z,5.10
2023-05-12T19:04:37.481Z,6.10
2023-05-12T19:07:04.088Z,5.35
2023-05-12T19:09:30.536Z,6.32
2023-05-12T19:11:56.988Z,5.07
2023-05-12T19:14:23.415Z,5.60
2023-05-12T19:16:49.862Z,4.90
2023-05-12T19:19:16.379Z,4.60
2023-05-12T19:21:44.515Z,5.03
2023-05-12T19:24:10.994Z,5.07
2023-05-12T19:26:37.475Z,3.90
2023-05-12T19:29:03.955Z,4.28
2023-05-12T19:31:30.460Z,4.00
2023-05-12T19:33:57.028Z,4.28
2023-05-12T19:36:23.530Z,4.10
2023-05-12T19:38:51.350Z,4.18
2023-05-12T19:41:17.854Z,4.03
2023-05-12T19:43:44.329Z,4.05
2023-05-12T19:46:10.832Z,4.10
2023-05-12T19:48:37.318Z,3.80
2023-05-12T19:51:03.868Z,4.13
2023-05-12T19:53:30.355Z,4.95
2023-05-12T19:55:58.101Z,3.90
2023-05-12T19:58:25.318Z,4.07
2023-05-12T20:00:51.775Z,4.47
2023-05-12T20:03:18.609Z,4.60
2023-05-12T20:05:46.676Z,3.90
2023-05-12T20:08:14.817Z,4.20
2023-05-12T20:10:41.297Z,4.85
2023-05-12T20:13:09.175Z,4.57
2023-05-12T20:15:35.612Z,3.72
2023-05-12T20:18:02.122Z,4.15
2023-05-12T20:20:28.570Z,4.15
2023-05-12T20:22:54.978Z,4.35
2023-05-12T20:25:21.632Z,3.75
2023-05-12T20:27:48.298Z,3.95
2023-05-12T20:30:16.046Z,3.58
2023-05-12T20:32:42.625Z,4.00
2023-05-12T20:35:09.419Z,3.65
2023-05-12T20:37:35.879Z,3.73
2023-05-12T20:40:02.552Z,3.13
2023-05-12T20:42:28.997Z,4.10
2023-05-12T20:44:55.445Z,3.33
2023-05-12T20:47:23.686Z,3.85
2023-05-12T20:49:54.886Z,3.28
2023-05-12T20:52:21.322Z,3.33
2023-05-12T20:54:47.834Z,3.20
2023-05-12T20:57:14.252Z,3.28
2023-05-12T20:59:40.702Z,2.88
2023-05-12T21:02:07.197Z,2.88
2023-05-12T21:04:34.988Z,3.15
2023-05-12T21:07:01.401Z,3.60
2023-05-12T21:09:27.837Z,3.28
2023-05-12T21:11:54.345Z,3.70
2023-05-12T21:14:20.795Z,3.13
2023-05-12T21:16:47.244Z,3.33
2023-05-12T21:19:13.774Z,3.00
2023-05-12T21:21:41.571Z,3.60
2023-05-12T21:24:08.172Z,3.65
2023-05-12T21:26:34.596Z,3.45
2023-05-12T21:29:01.042Z,3.03
2023-05-12T21:31:28.009Z,2.78
2023-05-12T21:33:54.490Z,3.42
2023-05-12T21:36:20.973Z,3.25
2023-05-12T21:38:48.742Z,3.30
2023-05-12T21:41:15.173Z,3.38
2023-05-12T21:43:41.612Z,3.17
2023-05-12T21:46:08.078Z,3.45
2023-05-12T21:48:34.538Z,2.83
2023-05-12T21:51:02.428Z,2.65
2023-05-12T21:53:29.153Z,2.47
2023-05-12T21:55:56.943Z,3.03
2023-05-12T21:58:23.404Z,3.08
2023-05-12T22:00:50.299Z,3.78
2023-05-12T22:03:16.801Z,2.95
2023-05-12T22:05:43.256Z,3.42
2023-05-12T22:08:12.747Z,2.90
2023-05-12T22:10:39.188Z,2.90
2023-05-12T22:13:06.925Z,3.40
2023-05-12T22:15:33.568Z,2.90
2023-05-12T22:18:00.187Z,3.30
2023-05-12T22:20:26.797Z,2.80
2023-05-12T22:22:53.305Z,2.80
2023-05-12T22:25:19.755Z,2.95
2023-05-12T22:27:46.212Z,3.55
2023-05-12T22:30:14.515Z,3.20
2023-05-12T22:32:41.021Z,2.85
2023-05-12T22:35:08.541Z,2.72
2023-05-12T22:37:35.013Z,2.70
2023-05-12T22:40:01.560Z,3.03
2023-05-12T22:42:27.972Z,3.08
2023-05-12T22:44:54.380Z,2.88
2023-05-12T22:47:22.232Z,2.97
2023-05-12T22:49:48.667Z,2.58
2023-05-12T22:52:15.095Z,3.17
2023-05-12T22:54:41.515Z,2.70
2023-05-12T22:57:07.950Z,2.90
2023-05-12T22:59:34.376Z,3.75
2023-05-12T23:02:00.812Z,3.05
2023-05-12T23:04:28.666Z,3.35
2023-05-12T23:06:55.164Z,3.72
2023-05-12T23:09:21.570Z,3.10
2023-05-12T23:11:47.981Z,3.20
2023-05-12T23:14:14.452Z,3.20
2023-05-12T23:16:40.957Z,3.03
2023-05-12T23:19:07.551Z,3.83
2023-05-12T23:21:35.455Z,3.72
2023-05-12T23:24:01.925Z,4.30
2023-05-12T23:26:28.331Z,4.03
2023-05-12T23:28:54.827Z,4.53
2023-05-12T23:31:21.285Z,4.00
2023-05-12T23:33:47.797Z,4.20
2023-05-12T23:36:14.272Z,4.35
2023-05-12T23:38:42.111Z,3.80
2023-05-12T23:41:08.522Z,4.28
2023-05-12T23:43:34.992Z,5.38
2023-05-12T23:46:01.702Z,5.03
2023-05-12T23:48:28.249Z,4.28
2023-05-12T23:50:54.705Z,4.68
2023-05-12T23:53:21.956Z,5.65
2023-05-12T23:55:49.786Z,4.78
2023-05-12T23:58:16.407Z,5.05
